Gold Beach, OR

2:31 AM PDT on October 25, 2014 (GMT -0700)
North Bend | Change Station
CLOSE
Current Station
Airport
Location: North Bend,
Elevation: 16 ft
Nearby Weather Stations
Active Advisory: High Wind Warning

Elev 16 ft 43.42 °N, 124.25 °W | Updated 16 minutes ago

Overcast
Overcast
55 °F
Feels Like 55 °F
N
6
Wind Variable Wind from SSW

Today
High -- | Low -- °F
--% Chance of Precip.
Yesterday
High -- | Low -- °F
Precip. -- in
7:42 AM 6:19 PM
New Moon, 2% visible
Pressure 29.58 in
Visibility 10.0 miles
Clouds Mostly Cloudy 3400 ft
Mostly Cloudy 4300 ft
Overcast 7000 ft
Dew Point 55 °F
Humidity 100%
Rainfall 0.00 in
Snow Depth Not available.
UV 0 out of 12
Pollen .40 out of 12
Air Quality Not available.
Flu Activity Sporadic
METAR KOTH 250915Z 20005KT 10SM BKN034 BKN043 OVC070 13/13 A2958 RMK AO1

More Conditions Fewer Conditions

Pressure 29.58 in
Visibility 10.0 miles
Clouds Mostly Cloudy 3400 ft
Mostly Cloudy 4300 ft
Overcast 7000 ft
Dew Point 55 °F
Humidity 100%
Rainfall 0.00 in
Snow Depth Not available.
UV 0 out of 12
Pollen .40 out of 12
Air Quality Not available.
Flu Activity Sporadic
METAR KOTH 250915Z 20005KT 10SM BKN034 BKN043 OVC070 13/13 A2958 RMK AO1

More Conditions Fewer Conditions

10-Day Weather Forecast

Almanac

Astronomy

Oct. 25, 2014 Rise Set
Actual Time 7:42 AM PDT 6:19 PM PDT
Civil Twilight 7:13 AM PDT 6:48 PM PDT
Nautical Twilight 6:40 AM PDT 7:21 PM PDT
Astronomical Twilight 6:08 AM PDT 7:54 PM PDT
Moon 9:28 AM PDT 7:45 PM PDT
Length of Visible Light 11h 35m
Length of Day
10h 37m
Tomorrow will be 2m 40s shorter.
New Moon, 2% of the Moon is Illuminated
Today
New Moon
Oct 30
First Quarter
Nov 6
Full
Nov 14
Last Quarter
Nov 22
New

Today's Extremes

State Highs State Lows

Community

WunderPhotos

Upload Photos

1,764,796 photos uploaded!

Nearby

Snow Depth

Station Depth Elevation
Big Red Mountain 0 in 6250 ft
Fish Lake 0 in 4665 ft
Billie Creek Divide 0 in 5300 ft
Fourmile Lake 0 in 6000 ft
Cold Springs Camp 0 in 6100 ft

Earthquake Activity

City Distance Mag. Time & Date
No recent earthquake activity has been reported nearby.
Minimum magnitude displayed is 2.5.

Coastal Water Temperatures

Place Temperature
Port Orford, OR 60.1 °F
Crescent City, CA 60.1 °F
Charleston, OR 59.0 °F

Nearby Weather Stations